sensor_id;sensor_type;location;lat;lon;timestamp;P1;durP1;ratioP1;P2;durP2;ratioP2
15706;SDS011;7953;54.302;10.128;2022-10-22T00:01:27;29.07;;;19.23;;
15706;SDS011;7953;54.302;10.128;2022-10-22T00:03:54;25.40;;;19.87;;
15706;SDS011;7953;54.302;10.128;2022-10-22T00:06:21;23.50;;;19.10;;
15706;SDS011;7953;54.302;10.128;2022-10-22T00:08:48;25.17;;;20.10;;
15706;SDS011;7953;54.302;10.128;2022-10-22T00:11:15;23.97;;;19.13;;
15706;SDS011;7953;54.302;10.128;2022-10-22T00:13:44;23.63;;;19.10;;
15706;SDS011;7953;54.302;10.128;2022-10-22T00:16:12;29.03;;;21.07;;
15706;SDS011;7953;54.302;10.128;2022-10-22T00:18:40;32.57;;;19.73;;
15706;SDS011;7953;54.302;10.128;2022-10-22T00:21:07;26.57;;;19.67;;
15706;SDS011;7953;54.302;10.128;2022-10-22T00:23:34;27.63;;;20.67;;
15706;SDS011;7953;54.302;10.128;2022-10-22T00:26:01;26.20;;;19.87;;
15706;SDS011;7953;54.302;10.128;2022-10-22T00:28:27;26.30;;;21.13;;
15706;SDS011;7953;54.302;10.128;2022-10-22T00:30:55;26.17;;;20.77;;
15706;SDS011;7953;54.302;10.128;2022-10-22T00:33:23;24.50;;;20.57;;
15706;SDS011;7953;54.302;10.128;2022-10-22T00:35:50;26.40;;;22.43;;
15706;SDS011;7953;54.302;10.128;2022-10-22T00:38:17;29.60;;;22.07;;
15706;SDS011;7953;54.302;10.128;2022-10-22T00:40:44;33.43;;;22.33;;
15706;SDS011;7953;54.302;10.128;2022-10-22T00:43:12;30.10;;;21.93;;
15706;SDS011;7953;54.302;10.128;2022-10-22T00:45:41;26.80;;;21.23;;
15706;SDS011;7953;54.302;10.128;2022-10-22T00:48:09;32.93;;;22.73;;
15706;SDS011;7953;54.302;10.128;2022-10-22T00:50:40;28.77;;;21.60;;
15706;SDS011;7953;54.302;10.128;2022-10-22T00:53:11;29.20;;;22.20;;
15706;SDS011;7953;54.302;10.128;2022-10-22T00:55:40;32.10;;;22.63;;
15706;SDS011;7953;54.302;10.128;2022-10-22T00:58:08;30.03;;;22.13;;
15706;SDS011;7953;54.302;10.128;2022-10-22T01:00:36;33.13;;;23.57;;
15706;SDS011;7953;54.302;10.128;2022-10-22T01:03:02;28.73;;;22.57;;
15706;SDS011;7953;54.302;10.128;2022-10-22T01:05:30;29.80;;;22.63;;
15706;SDS011;7953;54.302;10.128;2022-10-22T01:08:05;31.30;;;23.67;;
15706;SDS011;7953;54.302;10.128;2022-10-22T01:10:43;33.17;;;24.13;;
15706;SDS011;7953;54.302;10.128;2022-10-22T01:13:21;32.03;;;22.73;;
15706;SDS011;7953;54.302;10.128;2022-10-22T01:15:55;30.80;;;24.23;;
15706;SDS011;7953;54.302;10.128;2022-10-22T01:18:33;30.33;;;22.13;;
15706;SDS011;7953;54.302;10.128;2022-10-22T01:21:08;30.77;;;22.30;;
15706;SDS011;7953;54.302;10.128;2022-10-22T01:23:51;31.40;;;23.93;;
15706;SDS011;7953;54.302;10.128;2022-10-22T01:26:45;35.73;;;24.40;;
15706;SDS011;7953;54.302;10.128;2022-10-22T01:29:26;33.10;;;22.93;;
15706;SDS011;7953;54.302;10.128;2022-10-22T01:31:59;32.90;;;24.20;;
15706;SDS011;7953;54.302;10.128;2022-10-22T01:34:28;32.00;;;23.17;;
15706;SDS011;7953;54.302;10.128;2022-10-22T01:36:56;29.57;;;23.30;;
15706;SDS011;7953;54.302;10.128;2022-10-22T01:39:24;32.53;;;24.90;;
15706;SDS011;7953;54.302;10.128;2022-10-22T01:41:54;31.57;;;23.20;;
15706;SDS011;7953;54.302;10.128;2022-10-22T01:44:25;28.50;;;22.33;;
15706;SDS011;7953;54.302;10.128;2022-10-22T01:46:56;37.23;;;23.53;;
15706;SDS011;7953;54.302;10.128;2022-10-22T01:49:40;29.30;;;21.70;;
15706;SDS011;7953;54.302;10.128;2022-10-22T01:52:20;32.33;;;22.10;;
15706;SDS011;7953;54.302;10.128;2022-10-22T01:54:58;32.50;;;23.17;;
15706;SDS011;7953;54.302;10.128;2022-10-22T01:57:42;30.43;;;23.43;;
15706;SDS011;7953;54.302;10.128;2022-10-22T02:00:16;31.93;;;23.90;;
15706;SDS011;7953;54.302;10.128;2022-10-22T02:02:46;37.93;;;23.93;;
15706;SDS011;7953;54.302;10.128;2022-10-22T02:05:18;30.33;;;22.77;;
15706;SDS011;7953;54.302;10.128;2022-10-22T02:07:49;29.67;;;23.30;;
15706;SDS011;7953;54.302;10.128;2022-10-22T02:10:19;26.93;;;22.33;;
15706;SDS011;7953;54.302;10.128;2022-10-22T02:12:47;34.97;;;24.20;;
15706;SDS011;7953;54.302;10.128;2022-10-22T02:15:18;32.20;;;24.13;;
15706;SDS011;7953;54.302;10.128;2022-10-22T02:17:48;35.37;;;24.47;;
15706;SDS011;7953;54.302;10.128;2022-10-22T02:20:17;32.50;;;23.60;;
15706;SDS011;7953;54.302;10.128;2022-10-22T02:22:46;32.80;;;24.53;;
15706;SDS011;7953;54.302;10.128;2022-10-22T02:25:13;33.27;;;23.80;;
15706;SDS011;7953;54.302;10.128;2022-10-22T02:27:42;35.83;;;25.40;;
15706;SDS011;7953;54.302;10.128;2022-10-22T02:30:12;37.50;;;24.87;;
15706;SDS011;7953;54.302;10.128;2022-10-22T02:32:43;34.93;;;25.63;;
15706;SDS011;7953;54.302;10.128;2022-10-22T02:35:17;36.33;;;24.30;;
15706;SDS011;7953;54.302;10.128;2022-10-22T02:37:46;33.17;;;24.17;;
15706;SDS011;7953;54.302;10.128;2022-10-22T02:40:14;37.07;;;24.53;;
15706;SDS011;7953;54.302;10.128;2022-10-22T02:42:41;32.53;;;25.07;;
15706;SDS011;7953;54.302;10.128;2022-10-22T02:45:09;39.20;;;26.57;;
15706;SDS011;7953;54.302;10.128;2022-10-22T02:47:36;35.10;;;25.50;;
15706;SDS011;7953;54.302;10.128;2022-10-22T02:50:05;34.50;;;25.87;;
15706;SDS011;7953;54.302;10.128;2022-10-22T02:52:32;38.53;;;26.67;;
15706;SDS011;7953;54.302;10.128;2022-10-22T02:54:59;38.53;;;26.90;;
15706;SDS011;7953;54.302;10.128;2022-10-22T02:57:26;36.10;;;24.57;;
15706;SDS011;7953;54.302;10.128;2022-10-22T02:59:53;35.00;;;25.77;;
15706;SDS011;7953;54.302;10.128;2022-10-22T03:02:20;38.03;;;25.77;;
15706;SDS011;7953;54.302;10.128;2022-10-22T03:04:47;39.93;;;27.53;;
15706;SDS011;7953;54.302;10.128;2022-10-22T03:07:15;37.13;;;26.23;;
15706;SDS011;7953;54.302;10.128;2022-10-22T03:09:42;35.33;;;26.40;;
15706;SDS011;7953;54.302;10.128;2022-10-22T03:12:09;42.23;;;29.03;;
15706;SDS011;7953;54.302;10.128;2022-10-22T03:14:36;37.63;;;26.77;;
15706;SDS011;7953;54.302;10.128;2022-10-22T03:17:03;36.17;;;25.70;;
15706;SDS011;7953;54.302;10.128;2022-10-22T03:19:30;40.37;;;27.63;;
15706;SDS011;7953;54.302;10.128;2022-10-22T03:21:57;38.63;;;29.23;;
15706;SDS011;7953;54.302;10.128;2022-10-22T03:24:29;37.27;;;27.03;;
15706;SDS011;7953;54.302;10.128;2022-10-22T03:27:00;38.23;;;27.33;;
15706;SDS011;7953;54.302;10.128;2022-10-22T03:29:27;39.33;;;26.33;;
15706;SDS011;7953;54.302;10.128;2022-10-22T03:31:56;39.20;;;27.40;;
15706;SDS011;7953;54.302;10.128;2022-10-22T03:34:23;42.97;;;28.53;;
15706;SDS011;7953;54.302;10.128;2022-10-22T03:36:50;43.97;;;27.07;;
15706;SDS011;7953;54.302;10.128;2022-10-22T03:39:18;41.03;;;27.90;;
15706;SDS011;7953;54.302;10.128;2022-10-22T03:41:47;40.77;;;28.00;;
15706;SDS011;7953;54.302;10.128;2022-10-22T03:44:16;38.27;;;27.30;;
15706;SDS011;7953;54.302;10.128;2022-10-22T03:46:43;39.23;;;28.00;;
15706;SDS011;7953;54.302;10.128;2022-10-22T03:49:10;41.43;;;27.07;;
15706;SDS011;7953;54.302;10.128;2022-10-22T03:51:37;40.40;;;28.10;;
15706;SDS011;7953;54.302;10.128;2022-10-22T03:54:04;35.53;;;27.10;;
15706;SDS011;7953;54.302;10.128;2022-10-22T03:56:31;38.50;;;27.07;;
15706;SDS011;7953;54.302;10.128;2022-10-22T03:59:01;40.17;;;29.23;;
15706;SDS011;7953;54.302;10.128;2022-10-22T04:01:28;38.17;;;27.53;;
15706;SDS011;7953;54.302;10.128;2022-10-22T04:03:58;42.23;;;29.27;;
15706;SDS011;7953;54.302;10.128;2022-10-22T04:06:25;46.73;;;28.63;;
15706;SDS011;7953;54.302;10.128;2022-10-22T04:08:54;38.63;;;28.03;;
15706;SDS011;7953;54.302;10.128;2022-10-22T04:11:21;45.70;;;30.70;;
15706;SDS011;7953;54.302;10.128;2022-10-22T04:13:48;43.80;;;30.00;;
15706;SDS011;7953;54.302;10.128;2022-10-22T04:16:17;46.93;;;29.63;;
15706;SDS011;7953;54.302;10.128;2022-10-22T04:18:46;51.53;;;30.83;;
15706;SDS011;7953;54.302;10.128;2022-10-22T04:21:14;59.23;;;32.00;;
15706;SDS011;7953;54.302;10.128;2022-10-22T04:23:43;79.03;;;33.83;;
15706;SDS011;7953;54.302;10.128;2022-10-22T04:26:11;86.23;;;33.20;;
15706;SDS011;7953;54.302;10.128;2022-10-22T04:28:38;95.87;;;32.83;;
15706;SDS011;7953;54.302;10.128;2022-10-22T04:31:06;62.47;;;31.83;;
15706;SDS011;7953;54.302;10.128;2022-10-22T04:33:36;79.23;;;34.23;;
15706;SDS011;7953;54.302;10.128;2022-10-22T04:36:06;57.47;;;30.13;;
15706;SDS011;7953;54.302;10.128;2022-10-22T04:38:34;71.57;;;30.63;;
15706;SDS011;7953;54.302;10.128;2022-10-22T04:41:07;77.57;;;33.23;;
15706;SDS011;7953;54.302;10.128;2022-10-22T04:43:35;79.20;;;30.40;;
15706;SDS011;7953;54.302;10.128;2022-10-22T04:46:02;87.70;;;33.07;;
15706;SDS011;7953;54.302;10.128;2022-10-22T04:48:29;92.97;;;36.00;;
15706;SDS011;7953;54.302;10.128;2022-10-22T04:50:57;92.40;;;31.77;;
15706;SDS011;7953;54.302;10.128;2022-10-22T04:53:24;98.13;;;34.93;;
15706;SDS011;7953;54.302;10.128;2022-10-22T04:55:51;79.43;;;32.87;;
15706;SDS011;7953;54.302;10.128;2022-10-22T04:58:18;98.23;;;33.30;;
15706;SDS011;7953;54.302;10.128;2022-10-22T05:00:46;37.50;;;26.80;;
15706;SDS011;7953;54.302;10.128;2022-10-22T05:03:12;49.33;;;30.73;;
15706;SDS011;7953;54.302;10.128;2022-10-22T05:05:39;85.63;;;31.83;;
15706;SDS011;7953;54.302;10.128;2022-10-22T05:08:07;122.20;;;35.17;;
15706;SDS011;7953;54.302;10.128;2022-10-22T05:10:34;63.50;;;29.87;;
15706;SDS011;7953;54.302;10.128;2022-10-22T05:13:01;71.10;;;30.40;;
15706;SDS011;7953;54.302;10.128;2022-10-22T05:15:28;80.03;;;32.10;;
15706;SDS011;7953;54.302;10.128;2022-10-22T05:17:55;77.40;;;30.47;;
15706;SDS011;7953;54.302;10.128;2022-10-22T05:20:22;42.77;;;26.90;;
15706;SDS011;7953;54.302;10.128;2022-10-22T05:22:49;84.50;;;30.20;;
15706;SDS011;7953;54.302;10.128;2022-10-22T05:25:17;50.07;;;27.30;;
15706;SDS011;7953;54.302;10.128;2022-10-22T05:27:47;114.70;;;33.37;;
15706;SDS011;7953;54.302;10.128;2022-10-22T05:30:14;90.13;;;29.57;;
15706;SDS011;7953;54.302;10.128;2022-10-22T05:32:41;59.20;;;26.73;;
15706;SDS011;7953;54.302;10.128;2022-10-22T05:35:08;67.83;;;26.30;;
15706;SDS011;7953;54.302;10.128;2022-10-22T05:37:35;70.57;;;27.87;;
15706;SDS011;7953;54.302;10.128;2022-10-22T05:40:02;86.83;;;27.43;;
15706;SDS011;7953;54.302;10.128;2022-10-22T05:42:32;102.57;;;27.63;;
15706;SDS011;7953;54.302;10.128;2022-10-22T05:44:59;54.10;;;25.13;;
15706;SDS011;7953;54.302;10.128;2022-10-22T05:47:29;41.90;;;24.10;;
15706;SDS011;7953;54.302;10.128;2022-10-22T05:49:56;52.20;;;25.77;;
15706;SDS011;7953;54.302;10.128;2022-10-22T05:52:23;102.57;;;30.47;;
15706;SDS011;7953;54.302;10.128;2022-10-22T05:54:51;61.83;;;25.80;;
15706;SDS011;7953;54.302;10.128;2022-10-22T05:57:18;70.90;;;29.00;;
15706;SDS011;7953;54.302;10.128;2022-10-22T05:59:46;75.90;;;27.50;;
15706;SDS011;7953;54.302;10.128;2022-10-22T06:02:16;70.90;;;26.57;;
15706;SDS011;7953;54.302;10.128;2022-10-22T06:04:44;93.63;;;29.80;;
15706;SDS011;7953;54.302;10.128;2022-10-22T06:07:13;114.63;;;31.23;;
15706;SDS011;7953;54.302;10.128;2022-10-22T06:09:41;103.63;;;30.77;;
15706;SDS011;7953;54.302;10.128;2022-10-22T06:15:32;59.73;;;26.80;;
15706;SDS011;7953;54.302;10.128;2022-10-22T06:21:02;85.03;;;27.63;;
15706;SDS011;7953;54.302;10.128;2022-10-22T06:24:23;37.60;;;24.23;;
15706;SDS011;7953;54.302;10.128;2022-10-22T06:27:09;60.43;;;27.87;;
15706;SDS011;7953;54.302;10.128;2022-10-22T06:29:36;88.47;;;31.70;;
15706;SDS011;7953;54.302;10.128;2022-10-22T06:32:05;89.63;;;30.33;;
15706;SDS011;7953;54.302;10.128;2022-10-22T06:34:37;90.60;;;30.60;;
15706;SDS011;7953;54.302;10.128;2022-10-22T06:40:01;66.33;;;28.00;;
15706;SDS011;7953;54.302;10.128;2022-10-22T06:42:51;59.90;;;28.53;;
15706;SDS011;7953;54.302;10.128;2022-10-22T06:45:26;56.80;;;26.63;;
15706;SDS011;7953;54.302;10.128;2022-10-22T06:51:08;64.43;;;26.50;;
15706;SDS011;7953;54.302;10.128;2022-10-22T06:53:55;36.67;;;24.40;;
15706;SDS011;7953;54.302;10.128;2022-10-22T07:02:34;44.50;;;24.93;;
15706;SDS011;7953;54.302;10.128;2022-10-22T07:05:17;49.13;;;26.07;;
15706;SDS011;7953;54.302;10.128;2022-10-22T07:08:01;38.87;;;24.20;;
15706;SDS011;7953;54.302;10.128;2022-10-22T07:10:29;42.47;;;25.30;;
15706;SDS011;7953;54.302;10.128;2022-10-22T07:13:07;55.00;;;27.00;;
15706;SDS011;7953;54.302;10.128;2022-10-22T07:15:34;63.73;;;29.40;;
15706;SDS011;7953;54.302;10.128;2022-10-22T07:18:03;50.33;;;28.23;;
15706;SDS011;7953;54.302;10.128;2022-10-22T07:20:30;62.27;;;28.10;;
15706;SDS011;7953;54.302;10.128;2022-10-22T07:22:57;51.50;;;28.67;;
15706;SDS011;7953;54.302;10.128;2022-10-22T07:25:26;43.67;;;28.10;;
15706;SDS011;7953;54.302;10.128;2022-10-22T07:27:53;54.77;;;27.97;;
15706;SDS011;7953;54.302;10.128;2022-10-22T07:30:19;61.17;;;29.03;;
15706;SDS011;7953;54.302;10.128;2022-10-22T07:32:46;60.47;;;30.00;;
15706;SDS011;7953;54.302;10.128;2022-10-22T07:35:14;53.37;;;29.93;;
15706;SDS011;7953;54.302;10.128;2022-10-22T07:37:41;59.03;;;29.03;;
15706;SDS011;7953;54.302;10.128;2022-10-22T07:40:08;45.23;;;26.53;;
15706;SDS011;7953;54.302;10.128;2022-10-22T07:42:37;49.93;;;27.87;;
15706;SDS011;7953;54.302;10.128;2022-10-22T07:45:04;74.13;;;32.50;;
15706;SDS011;7953;54.302;10.128;2022-10-22T07:47:32;68.90;;;43.87;;
15706;SDS011;7953;54.302;10.128;2022-10-22T07:50:07;46.43;;;30.00;;
15706;SDS011;7953;54.302;10.128;2022-10-22T07:52:35;48.47;;;30.93;;
15706;SDS011;7953;54.302;10.128;2022-10-22T07:55:02;48.20;;;29.13;;
15706;SDS011;7953;54.302;10.128;2022-10-22T07:57:30;46.27;;;28.47;;
15706;SDS011;7953;54.302;10.128;2022-10-22T07:59:58;41.70;;;26.47;;
15706;SDS011;7953;54.302;10.128;2022-10-22T08:02:25;45.70;;;28.73;;
15706;SDS011;7953;54.302;10.128;2022-10-22T08:04:52;43.27;;;27.17;;
15706;SDS011;7953;54.302;10.128;2022-10-22T08:07:21;41.37;;;27.43;;
15706;SDS011;7953;54.302;10.128;2022-10-22T08:09:48;42.90;;;27.77;;
15706;SDS011;7953;54.302;10.128;2022-10-22T08:12:14;47.20;;;27.37;;
15706;SDS011;7953;54.302;10.128;2022-10-22T08:14:41;42.83;;;27.83;;
15706;SDS011;7953;54.302;10.128;2022-10-22T08:17:10;43.87;;;27.90;;
15706;SDS011;7953;54.302;10.128;2022-10-22T08:19:36;44.20;;;27.37;;
15706;SDS011;7953;54.302;10.128;2022-10-22T08:22:04;44.87;;;28.50;;
15706;SDS011;7953;54.302;10.128;2022-10-22T08:24:31;43.90;;;28.20;;
15706;SDS011;7953;54.302;10.128;2022-10-22T08:30:14;41.87;;;27.43;;
15706;SDS011;7953;54.302;10.128;2022-10-22T08:32:43;41.93;;;28.23;;
15706;SDS011;7953;54.302;10.128;2022-10-22T08:35:10;42.43;;;27.57;;
15706;SDS011;7953;54.302;10.128;2022-10-22T08:37:36;41.07;;;27.57;;
15706;SDS011;7953;54.302;10.128;2022-10-22T08:40:04;44.00;;;28.57;;
15706;SDS011;7953;54.302;10.128;2022-10-22T08:42:37;40.13;;;27.00;;
15706;SDS011;7953;54.302;10.128;2022-10-22T08:45:27;39.80;;;28.80;;
15706;SDS011;7953;54.302;10.128;2022-10-22T08:48:09;36.80;;;27.03;;
15706;SDS011;7953;54.302;10.128;2022-10-22T08:50:45;35.10;;;25.93;;
15706;SDS011;7953;54.302;10.128;2022-10-22T08:53:15;35.40;;;26.27;;
15706;SDS011;7953;54.302;10.128;2022-10-22T08:55:44;37.57;;;26.80;;
15706;SDS011;7953;54.302;10.128;2022-10-22T08:58:16;38.17;;;27.23;;
15706;SDS011;7953;54.302;10.128;2022-10-22T09:00:51;35.60;;;26.37;;
15706;SDS011;7953;54.302;10.128;2022-10-22T09:03:27;36.77;;;26.17;;
15706;SDS011;7953;54.302;10.128;2022-10-22T09:06:04;36.17;;;26.70;;
15706;SDS011;7953;54.302;10.128;2022-10-22T09:08:37;36.73;;;26.53;;
15706;SDS011;7953;54.302;10.128;2022-10-22T09:11:06;37.37;;;25.87;;
15706;SDS011;7953;54.302;10.128;2022-10-22T09:13:47;39.93;;;26.77;;
15706;SDS011;7953;54.302;10.128;2022-10-22T09:16:16;40.03;;;26.83;;
15706;SDS011;7953;54.302;10.128;2022-10-22T09:18:50;40.47;;;27.27;;
15706;SDS011;7953;54.302;10.128;2022-10-22T09:21:27;38.57;;;26.87;;
15706;SDS011;7953;54.302;10.128;2022-10-22T09:24:02;40.27;;;28.67;;
15706;SDS011;7953;54.302;10.128;2022-10-22T09:26:31;40.53;;;28.40;;
15706;SDS011;7953;54.302;10.128;2022-10-22T09:29:01;42.07;;;28.27;;
15706;SDS011;7953;54.302;10.128;2022-10-22T09:31:29;39.57;;;28.77;;
15706;SDS011;7953;54.302;10.128;2022-10-22T09:33:59;42.87;;;28.63;;
15706;SDS011;7953;54.302;10.128;2022-10-22T09:36:31;46.23;;;28.57;;
15706;SDS011;7953;54.302;10.128;2022-10-22T09:38:58;42.67;;;30.87;;
15706;SDS011;7953;54.302;10.128;2022-10-22T09:41:26;45.00;;;30.57;;
15706;SDS011;7953;54.302;10.128;2022-10-22T09:43:54;45.53;;;29.33;;
15706;SDS011;7953;54.302;10.128;2022-10-22T09:46:23;44.97;;;29.23;;
15706;SDS011;7953;54.302;10.128;2022-10-22T09:48:57;45.40;;;30.07;;
15706;SDS011;7953;54.302;10.128;2022-10-22T09:51:40;45.23;;;30.00;;
15706;SDS011;7953;54.302;10.128;2022-10-22T09:54:15;42.57;;;29.37;;
15706;SDS011;7953;54.302;10.128;2022-10-22T09:56:49;41.87;;;28.40;;
15706;SDS011;7953;54.302;10.128;2022-10-22T09:59:23;42.07;;;29.53;;
15706;SDS011;7953;54.302;10.128;2022-10-22T10:02:00;42.27;;;29.23;;
15706;SDS011;7953;54.302;10.128;2022-10-22T10:04:34;45.67;;;29.37;;
15706;SDS011;7953;54.302;10.128;2022-10-22T10:07:13;45.93;;;28.23;;
15706;SDS011;7953;54.302;10.128;2022-10-22T10:09:41;44.17;;;30.20;;
15706;SDS011;7953;54.302;10.128;2022-10-22T10:12:10;41.43;;;29.70;;
15706;SDS011;7953;54.302;10.128;2022-10-22T10:14:50;45.60;;;28.77;;
15706;SDS011;7953;54.302;10.128;2022-10-22T10:17:26;39.37;;;28.63;;
15706;SDS011;7953;54.302;10.128;2022-10-22T10:20:02;47.27;;;28.63;;
15706;SDS011;7953;54.302;10.128;2022-10-22T10:22:43;40.57;;;28.30;;
15706;SDS011;7953;54.302;10.128;2022-10-22T10:25:27;40.70;;;27.67;;
15706;SDS011;7953;54.302;10.128;2022-10-22T10:28:00;34.70;;;25.97;;
15706;SDS011;7953;54.302;10.128;2022-10-22T10:30:44;33.47;;;24.87;;
15706;SDS011;7953;54.302;10.128;2022-10-22T10:33:23;33.50;;;25.27;;
15706;SDS011;7953;54.302;10.128;2022-10-22T10:36:01;33.63;;;23.97;;
15706;SDS011;7953;54.302;10.128;2022-10-22T10:38:37;29.27;;;23.67;;
15706;SDS011;7953;54.302;10.128;2022-10-22T10:41:17;29.60;;;22.97;;
15706;SDS011;7953;54.302;10.128;2022-10-22T10:43:51;29.97;;;23.80;;
15706;SDS011;7953;54.302;10.128;2022-10-22T10:46:32;28.80;;;22.33;;
15706;SDS011;7953;54.302;10.128;2022-10-22T10:49:05;26.90;;;22.00;;
15706;SDS011;7953;54.302;10.128;2022-10-22T10:51:39;27.17;;;22.77;;
15706;SDS011;7953;54.302;10.128;2022-10-22T10:54:20;28.10;;;21.57;;
15706;SDS011;7953;54.302;10.128;2022-10-22T10:56:57;28.97;;;21.73;;
15706;SDS011;7953;54.302;10.128;2022-10-22T10:59:31;27.30;;;21.63;;
15706;SDS011;7953;54.302;10.128;2022-10-22T11:02:24;29.03;;;21.73;;
15706;SDS011;7953;54.302;10.128;2022-10-22T11:05:19;23.70;;;19.20;;
15706;SDS011;7953;54.302;10.128;2022-10-22T11:07:55;24.10;;;19.20;;
15706;SDS011;7953;54.302;10.128;2022-10-22T11:10:27;23.73;;;18.17;;
15706;SDS011;7953;54.302;10.128;2022-10-22T11:12:56;25.30;;;17.93;;
15706;SDS011;7953;54.302;10.128;2022-10-22T11:15:32;23.83;;;17.43;;
15706;SDS011;7953;54.302;10.128;2022-10-22T11:18:02;25.57;;;17.13;;
15706;SDS011;7953;54.302;10.128;2022-10-22T11:20:43;27.13;;;17.60;;
15706;SDS011;7953;54.302;10.128;2022-10-22T11:23:17;21.93;;;17.80;;
15706;SDS011;7953;54.302;10.128;2022-10-22T11:25:50;23.40;;;16.47;;
15706;SDS011;7953;54.302;10.128;2022-10-22T11:28:18;21.57;;;15.83;;
15706;SDS011;7953;54.302;10.128;2022-10-22T11:30:52;21.37;;;15.10;;
15706;SDS011;7953;54.302;10.128;2022-10-22T11:33:25;20.83;;;15.03;;
15706;SDS011;7953;54.302;10.128;2022-10-22T11:35:58;20.43;;;14.97;;
15706;SDS011;7953;54.302;10.128;2022-10-22T11:38:33;19.93;;;13.83;;
15706;SDS011;7953;54.302;10.128;2022-10-22T11:41:01;20.50;;;14.57;;
15706;SDS011;7953;54.302;10.128;2022-10-22T11:43:32;20.77;;;13.83;;
15706;SDS011;7953;54.302;10.128;2022-10-22T11:46:02;17.97;;;14.93;;
15706;SDS011;7953;54.302;10.128;2022-10-22T11:48:59;14.70;;;12.57;;
15706;SDS011;7953;54.302;10.128;2022-10-22T11:51:28;15.40;;;11.37;;
15706;SDS011;7953;54.302;10.128;2022-10-22T11:53:58;17.77;;;12.73;;
15706;SDS011;7953;54.302;10.128;2022-10-22T11:56:35;12.57;;;11.37;;
15706;SDS011;7953;54.302;10.128;2022-10-22T11:59:05;16.17;;;11.60;;
15706;SDS011;7953;54.302;10.128;2022-10-22T12:01:55;16.23;;;11.30;;
15706;SDS011;7953;54.302;10.128;2022-10-22T12:04:22;13.13;;;10.53;;
15706;SDS011;7953;54.302;10.128;2022-10-22T12:07:24;12.43;;;9.63;;
15706;SDS011;7953;54.302;10.128;2022-10-22T12:09:57;10.73;;;7.67;;
15706;SDS011;7953;54.302;10.128;2022-10-22T12:12:24;13.17;;;7.67;;
15706;SDS011;7953;54.302;10.128;2022-10-22T12:14:53;9.07;;;6.53;;
15706;SDS011;7953;54.302;10.128;2022-10-22T12:17:23;10.43;;;6.20;;
15706;SDS011;7953;54.302;10.128;2022-10-22T12:19:53;11.53;;;6.60;;
15706;SDS011;7953;54.302;10.128;2022-10-22T12:22:25;12.70;;;7.50;;
15706;SDS011;7953;54.302;10.128;2022-10-22T12:24:53;11.00;;;6.07;;
15706;SDS011;7953;54.302;10.128;2022-10-22T12:27:23;11.97;;;5.53;;
15706;SDS011;7953;54.302;10.128;2022-10-22T12:29:53;9.03;;;6.17;;
15706;SDS011;7953;54.302;10.128;2022-10-22T12:32:21;10.97;;;6.40;;
15706;SDS011;7953;54.302;10.128;2022-10-22T12:34:54;8.70;;;6.00;;
15706;SDS011;7953;54.302;10.128;2022-10-22T12:37:21;8.33;;;6.07;;
15706;SDS011;7953;54.302;10.128;2022-10-22T12:39:47;11.97;;;5.80;;
15706;SDS011;7953;54.302;10.128;2022-10-22T12:42:15;12.20;;;6.07;;
15706;SDS011;7953;54.302;10.128;2022-10-22T12:44:43;8.70;;;6.07;;
15706;SDS011;7953;54.302;10.128;2022-10-22T12:47:11;10.80;;;5.80;;
15706;SDS011;7953;54.302;10.128;2022-10-22T12:49:45;10.93;;;6.27;;
15706;SDS011;7953;54.302;10.128;2022-10-22T12:52:16;8.60;;;5.87;;
15706;SDS011;7953;54.302;10.128;2022-10-22T12:54:45;11.50;;;6.90;;
15706;SDS011;7953;54.302;10.128;2022-10-22T12:57:16;12.77;;;7.30;;
15706;SDS011;7953;54.302;10.128;2022-10-22T12:59:45;8.77;;;5.90;;
15706;SDS011;7953;54.302;10.128;2022-10-22T13:02:15;10.50;;;5.07;;
15706;SDS011;7953;54.302;10.128;2022-10-22T13:07:49;12.17;;;4.97;;
15706;SDS011;7953;54.302;10.128;2022-10-22T13:10:19;11.20;;;5.37;;
15706;SDS011;7953;54.302;10.128;2022-10-22T13:12:50;11.30;;;5.70;;
15706;SDS011;7953;54.302;10.128;2022-10-22T13:15:20;9.57;;;5.00;;
15706;SDS011;7953;54.302;10.128;2022-10-22T13:18:00;9.00;;;5.17;;
15706;SDS011;7953;54.302;10.128;2022-10-22T13:20:30;8.90;;;4.73;;
15706;SDS011;7953;54.302;10.128;2022-10-22T13:22:57;10.53;;;5.40;;
15706;SDS011;7953;54.302;10.128;2022-10-22T13:25:27;9.97;;;5.10;;
15706;SDS011;7953;54.302;10.128;2022-10-22T13:27:55;8.60;;;4.60;;
15706;SDS011;7953;54.302;10.128;2022-10-22T13:30:25;10.17;;;5.17;;
15706;SDS011;7953;54.302;10.128;2022-10-22T13:32:54;9.10;;;4.83;;
15706;SDS011;7953;54.302;10.128;2022-10-22T13:35:23;13.80;;;6.00;;
15706;SDS011;7953;54.302;10.128;2022-10-22T13:37:53;12.13;;;6.03;;
15706;SDS011;7953;54.302;10.128;2022-10-22T13:40:20;10.70;;;5.83;;
15706;SDS011;7953;54.302;10.128;2022-10-22T13:42:47;13.87;;;4.80;;
15706;SDS011;7953;54.302;10.128;2022-10-22T13:45:14;11.63;;;5.93;;
15706;SDS011;7953;54.302;10.128;2022-10-22T13:47:49;10.17;;;4.70;;
15706;SDS011;7953;54.302;10.128;2022-10-22T13:50:18;10.63;;;5.13;;
15706;SDS011;7953;54.302;10.128;2022-10-22T13:52:46;8.27;;;5.40;;
15706;SDS011;7953;54.302;10.128;2022-10-22T13:55:18;9.23;;;6.17;;
15706;SDS011;7953;54.302;10.128;2022-10-22T13:57:47;10.73;;;6.33;;
15706;SDS011;7953;54.302;10.128;2022-10-22T14:00:15;10.20;;;6.27;;
15706;SDS011;7953;54.302;10.128;2022-10-22T14:02:43;12.50;;;6.20;;
15706;SDS011;7953;54.302;10.128;2022-10-22T14:05:13;13.40;;;6.57;;
15706;SDS011;7953;54.302;10.128;2022-10-22T14:07:41;13.37;;;6.90;;
15706;SDS011;7953;54.302;10.128;2022-10-22T14:10:15;9.30;;;5.70;;
15706;SDS011;7953;54.302;10.128;2022-10-22T14:12:57;9.87;;;6.30;;
15706;SDS011;7953;54.302;10.128;2022-10-22T14:16:06;12.97;;;5.90;;
15706;SDS011;7953;54.302;10.128;2022-10-22T14:18:39;11.43;;;6.47;;
15706;SDS011;7953;54.302;10.128;2022-10-22T14:21:06;10.93;;;6.07;;
15706;SDS011;7953;54.302;10.128;2022-10-22T14:23:34;12.77;;;6.90;;
15706;SDS011;7953;54.302;10.128;2022-10-22T14:26:02;10.73;;;6.60;;
15706;SDS011;7953;54.302;10.128;2022-10-22T14:28:31;11.77;;;6.47;;
15706;SDS011;7953;54.302;10.128;2022-10-22T14:30:58;15.77;;;7.40;;
15706;SDS011;7953;54.302;10.128;2022-10-22T14:33:25;13.30;;;6.60;;
15706;SDS011;7953;54.302;10.128;2022-10-22T14:35:54;7.57;;;5.40;;
15706;SDS011;7953;54.302;10.128;2022-10-22T14:38:21;11.80;;;6.40;;
15706;SDS011;7953;54.302;10.128;2022-10-22T14:40:48;12.80;;;6.73;;
15706;SDS011;7953;54.302;10.128;2022-10-22T14:43:19;9.90;;;5.53;;
15706;SDS011;7953;54.302;10.128;2022-10-22T14:45:52;14.37;;;6.10;;
15706;SDS011;7953;54.302;10.128;2022-10-22T14:48:23;9.70;;;7.07;;
15706;SDS011;7953;54.302;10.128;2022-10-22T14:51:10;23.80;;;16.53;;
15706;SDS011;7953;54.302;10.128;2022-10-22T14:53:48;16.03;;;10.63;;
15706;SDS011;7953;54.302;10.128;2022-10-22T14:56:34;29.37;;;15.20;;
15706;SDS011;7953;54.302;10.128;2022-10-22T15:02:21;13.10;;;9.07;;
15706;SDS011;7953;54.302;10.128;2022-10-22T15:05:20;13.27;;;7.53;;
15706;SDS011;7953;54.302;10.128;2022-10-22T15:07:48;15.33;;;7.37;;
15706;SDS011;7953;54.302;10.128;2022-10-22T15:10:15;10.87;;;6.87;;
15706;SDS011;7953;54.302;10.128;2022-10-22T15:12:51;11.20;;;6.07;;
15706;SDS011;7953;54.302;10.128;2022-10-22T15:15:20;16.57;;;6.60;;